URATA UKKK-UKKK
Flight info
| Callsign | URATA |
|---|---|
| Flight time | 1h 8m |
| Altitude | 3500 |
| Route | 502816N0303233E 503720N0302642E 505318N0302618E 510426N0302331E 511616N0301309E 512300N0300551E 511953N0295438E 505619N0295350E 503260N0301324E DCT 502719N0302125E |
| Aircraft | PA24/L-SDGRY/S |
Departure
| Time | 2026-04-26 18:02 |
|---|---|
| Airport | Ihor Sikorsky Kyiv International Airport (Zhuliany) (UKKK) |
Arrival
| Time | 2026-04-26 19:11 |
|---|---|
| Airport | Ihor Sikorsky Kyiv International Airport (Zhuliany) (UKKK) |
| Time | Latitude | Longitude | Altitude | Speed | Heading |
|---|---|---|---|---|---|
| 2026-04-26 17:12 | 50.40799 | 30.44064 | 554 ft | 0 kts | 156° |
| 2026-04-26 17:54 | 50.40793 | 30.44068 | 559 ft | 5 kts | 161° |
| 2026-04-26 17:55 | 50.40792 | 30.44069 | 559 ft | 0 kts | 163° |
| 2026-04-26 17:57 | 50.40794 | 30.44053 | 562 ft | 4 kts | 353° |
| 2026-04-26 17:57 | 50.40795 | 30.44053 | 562 ft | 0 kts | 354° |
| 2026-04-26 17:57 | 50.40838 | 30.44039 | 559 ft | 15 kts | 6° |
| 2026-04-26 17:58 | 50.41011 | 30.44466 | 563 ft | 24 kts | 89° |
| 2026-04-26 17:59 | 50.40817 | 30.44992 | 571 ft | 33 kts | 132° |
| 2026-04-26 17:59 | 50.40679 | 30.45241 | 570 ft | 28 kts | 135° |
| 2026-04-26 17:59 | 50.40547 | 30.45471 | 572 ft | 35 kts | 133° |
| 2026-04-26 17:59 | 50.40469 | 30.45795 | 575 ft | 38 kts | 97° |
| 2026-04-26 18:00 | 50.40448 | 30.46123 | 578 ft | 21 kts | 99° |
| 2026-04-26 18:00 | 50.40355 | 30.46196 | 579 ft | 0 kts | 172° |
| 2026-04-26 18:01 | 50.40235 | 30.46185 | 584 ft | 21 kts | 220° |
| 2026-04-26 18:01 | 50.40207 | 30.45873 | 581 ft | 57 kts | 265° |
| 2026-04-26 18:02 | 50.40169 | 30.45036 | 694 ft | 86 kts | 270° |
| 2026-04-26 18:02 | 50.40155 | 30.44414 | 901 ft | 85 kts | 272° |
| 2026-04-26 18:02 | 50.40142 | 30.43173 | 1391 ft | 81 kts | 275° |
| 2026-04-26 18:02 | 50.40082 | 30.42303 | 1640 ft | 83 kts | 257° |
| 2026-04-26 18:03 | 50.39595 | 30.41716 | 1856 ft | 105 kts | 205° |
| 2026-04-26 18:03 | 50.38813 | 30.41991 | 2106 ft | 127 kts | 156° |
| 2026-04-26 18:03 | 50.38278 | 30.43167 | 2384 ft | 139 kts | 107° |
| 2026-04-26 18:03 | 50.38090 | 30.44695 | 2453 ft | 147 kts | 93° |
| 2026-04-26 18:04 | 50.37941 | 30.46285 | 2468 ft | 149 kts | 89° |
| 2026-04-26 18:04 | 50.37855 | 30.47948 | 2410 ft | 156 kts | 81° |
| 2026-04-26 18:04 | 50.38025 | 30.49582 | 2474 ft | 150 kts | 64° |
| 2026-04-26 18:05 | 50.38630 | 30.52630 | 2390 ft | 146 kts | 59° |
| 2026-04-26 18:05 | 50.39004 | 30.54080 | 2386 ft | 142 kts | 56° |
| 2026-04-26 18:05 | 50.39509 | 30.55405 | 2321 ft | 140 kts | 39° |
| 2026-04-26 18:05 | 50.40074 | 30.56574 | 2373 ft | 131 kts | 37° |
| 2026-04-26 18:06 | 50.40746 | 30.57526 | 2344 ft | 129 kts | 26° |
| 2026-04-26 18:06 | 50.41516 | 30.58118 | 2396 ft | 119 kts | 358° |
| 2026-04-26 18:06 | 50.42294 | 30.58268 | 2443 ft | 108 kts | 352° |
| 2026-04-26 18:06 | 50.43030 | 30.58253 | 2448 ft | 108 kts | 336° |
| 2026-04-26 18:07 | 50.43715 | 30.57866 | 2458 ft | 103 kts | 330° |
| 2026-04-26 18:07 | 50.44360 | 30.57394 | 2451 ft | 102 kts | 328° |
| 2026-04-26 18:07 | 50.44994 | 30.56903 | 2440 ft | 101 kts | 328° |
| 2026-04-26 18:07 | 50.45417 | 30.56583 | 2442 ft | 99 kts | 328° |
| 2026-04-26 18:08 | 50.46213 | 30.55918 | 2441 ft | 97 kts | 322° |
| 2026-04-26 18:08 | 50.46773 | 30.55334 | 2440 ft | 96 kts | 321° |
| 2026-04-26 18:08 | 50.47308 | 30.54706 | 2444 ft | 96 kts | 316° |
| 2026-04-26 18:08 | 50.47807 | 30.54014 | 2447 ft | 96 kts | 315° |
| 2026-04-26 18:09 | 50.48316 | 30.53346 | 2449 ft | 95 kts | 317° |
| 2026-04-26 18:09 | 50.48836 | 30.52691 | 2450 ft | 96 kts | 317° |
| 2026-04-26 18:09 | 50.49355 | 30.52028 | 2455 ft | 96 kts | 317° |
| 2026-04-26 18:09 | 50.49877 | 30.51364 | 2457 ft | 97 kts | 317° |
| 2026-04-26 18:10 | 50.50406 | 30.50708 | 2449 ft | 97 kts | 326° |
| 2026-04-26 18:10 | 50.51067 | 30.50398 | 2454 ft | 101 kts | 339° |
| 2026-04-26 18:10 | 50.51764 | 30.50197 | 2450 ft | 102 kts | 340° |
| 2026-04-26 18:10 | 50.52464 | 30.50009 | 2452 ft | 102 kts | 340° |
| 2026-04-26 18:11 | 50.53162 | 30.49819 | 2460 ft | 102 kts | 340° |
| 2026-04-26 18:11 | 50.53857 | 30.49610 | 2454 ft | 102 kts | 335° |
| 2026-04-26 18:11 | 50.54511 | 30.49210 | 2452 ft | 100 kts | 328° |
| 2026-04-26 18:11 | 50.55125 | 30.48692 | 2448 ft | 100 kts | 324° |
| 2026-04-26 18:12 | 50.55709 | 30.48127 | 2447 ft | 100 kts | 323° |
| 2026-04-26 18:12 | 50.56294 | 30.47541 | 2445 ft | 99 kts | 323° |
| 2026-04-26 18:12 | 50.56874 | 30.46965 | 2441 ft | 98 kts | 323° |
| 2026-04-26 18:12 | 50.57450 | 30.46411 | 2439 ft | 96 kts | 325° |
| 2026-04-26 18:13 | 50.58027 | 30.45893 | 2442 ft | 96 kts | 326° |
| 2026-04-26 18:13 | 50.58613 | 30.45397 | 2445 ft | 96 kts | 326° |
| 2026-04-26 18:13 | 50.59198 | 30.44898 | 2447 ft | 96 kts | 325° |
| 2026-04-26 18:13 | 50.59388 | 30.44732 | 2449 ft | 96 kts | 325° |
| 2026-04-26 18:14 | 50.60379 | 30.43862 | 2452 ft | 98 kts | 326° |
| 2026-04-26 18:14 | 50.60979 | 30.43337 | 2453 ft | 99 kts | 325° |
| 2026-04-26 18:14 | 50.61602 | 30.42890 | 2444 ft | 100 kts | 341° |
| 2026-04-26 18:14 | 50.62314 | 30.42851 | 2450 ft | 105 kts | 354° |
| 2026-04-26 18:15 | 50.63067 | 30.42995 | 2460 ft | 112 kts | 355° |
| 2026-04-26 18:15 | 50.63843 | 30.43160 | 2460 ft | 115 kts | 355° |
| 2026-04-26 18:15 | 50.64641 | 30.43329 | 2458 ft | 116 kts | 355° |
| 2026-04-26 18:15 | 50.65447 | 30.43492 | 2455 ft | 117 kts | 355° |
| 2026-04-26 18:16 | 50.66254 | 30.43657 | 2461 ft | 117 kts | 355° |
| 2026-04-26 18:16 | 50.67875 | 30.43959 | 2439 ft | 118 kts | 355° |
| 2026-04-26 18:16 | 50.68693 | 30.44099 | 2440 ft | 119 kts | 355° |
| 2026-04-26 18:17 | 50.69519 | 30.44242 | 2443 ft | 120 kts | 355° |
| 2026-04-26 18:17 | 50.70348 | 30.44384 | 2444 ft | 120 kts | 355° |
| 2026-04-26 18:17 | 50.71177 | 30.44522 | 2445 ft | 120 kts | 355° |
| 2026-04-26 18:17 | 50.72006 | 30.44657 | 2445 ft | 120 kts | 355° |
| 2026-04-26 18:18 | 50.72831 | 30.44790 | 2444 ft | 119 kts | 355° |
| 2026-04-26 18:18 | 50.73652 | 30.44922 | 2444 ft | 118 kts | 355° |
| 2026-04-26 18:18 | 50.74471 | 30.45054 | 2445 ft | 118 kts | 355° |
| 2026-04-26 18:18 | 50.75292 | 30.45183 | 2445 ft | 119 kts | 354° |
| 2026-04-26 18:19 | 50.75847 | 30.45270 | 2447 ft | 119 kts | 354° |
| 2026-04-26 18:19 | 50.76937 | 30.45442 | 2434 ft | 119 kts | 354° |
| 2026-04-26 18:19 | 50.77493 | 30.45532 | 2433 ft | 119 kts | 354° |
| 2026-04-26 18:19 | 50.78576 | 30.45719 | 2432 ft | 118 kts | 354° |
| 2026-04-26 18:20 | 50.79114 | 30.45814 | 2434 ft | 117 kts | 354° |
| 2026-04-26 18:20 | 50.79926 | 30.45954 | 2434 ft | 117 kts | 354° |
| 2026-04-26 18:20 | 50.80736 | 30.46093 | 2434 ft | 117 kts | 354° |
| 2026-04-26 18:20 | 50.81282 | 30.46189 | 2434 ft | 117 kts | 354° |
| 2026-04-26 18:21 | 50.82356 | 30.46382 | 2437 ft | 118 kts | 354° |
| 2026-04-26 18:21 | 50.83173 | 30.46526 | 2438 ft | 118 kts | 354° |
| 2026-04-26 18:21 | 50.83991 | 30.46671 | 2440 ft | 118 kts | 354° |
| 2026-04-26 18:21 | 50.84812 | 30.46815 | 2441 ft | 118 kts | 354° |
| 2026-04-26 18:22 | 50.85625 | 30.46777 | 2443 ft | 114 kts | 343° |
| 2026-04-26 18:22 | 50.86403 | 30.46634 | 2440 ft | 112 kts | 343° |
| 2026-04-26 18:22 | 50.87175 | 30.46485 | 2431 ft | 110 kts | 343° |
| 2026-04-26 18:22 | 50.87932 | 30.46307 | 2434 ft | 110 kts | 335° |
| 2026-04-26 18:23 | 50.88633 | 30.45896 | 2429 ft | 105 kts | 331° |
| 2026-04-26 18:23 | 50.89305 | 30.45461 | 2421 ft | 104 kts | 331° |
| 2026-04-26 18:23 | 50.89967 | 30.45028 | 2421 ft | 102 kts | 330° |
| 2026-04-26 18:23 | 50.90619 | 30.44600 | 2427 ft | 101 kts | 330° |
| 2026-04-26 18:24 | 50.91258 | 30.44181 | 2431 ft | 100 kts | 330° |
| 2026-04-26 18:24 | 50.91904 | 30.43752 | 2433 ft | 101 kts | 330° |
| 2026-04-26 18:24 | 50.92551 | 30.43324 | 2434 ft | 101 kts | 330° |
| 2026-04-26 18:24 | 50.93197 | 30.42897 | 2442 ft | 101 kts | 330° |
| 2026-04-26 18:25 | 50.93850 | 30.42468 | 2434 ft | 102 kts | 332° |
| 2026-04-26 18:25 | 50.94521 | 30.42113 | 2433 ft | 102 kts | 335° |
| 2026-04-26 18:25 | 50.95195 | 30.41760 | 2434 ft | 102 kts | 334° |
| 2026-04-26 18:25 | 50.95867 | 30.41411 | 2441 ft | 102 kts | 334° |
| 2026-04-26 18:26 | 50.96537 | 30.41062 | 2444 ft | 101 kts | 334° |
| 2026-04-26 18:26 | 50.97206 | 30.40707 | 2442 ft | 101 kts | 334° |
| 2026-04-26 18:26 | 50.97886 | 30.40423 | 2443 ft | 101 kts | 342° |
| 2026-04-26 18:26 | 50.98595 | 30.40299 | 2443 ft | 104 kts | 347° |
| 2026-04-26 18:27 | 50.99340 | 30.40264 | 2429 ft | 107 kts | 348° |
| 2026-04-26 18:27 | 51.00072 | 30.40232 | 2432 ft | 107 kts | 348° |
| 2026-04-26 18:27 | 51.00813 | 30.40237 | 2430 ft | 107 kts | 351° |
| 2026-04-26 18:27 | 51.01555 | 30.40314 | 2430 ft | 107 kts | 353° |
| 2026-04-26 18:28 | 51.02300 | 30.40496 | 2434 ft | 110 kts | 358° |
| 2026-04-26 18:28 | 51.03059 | 30.40725 | 2431 ft | 111 kts | 358° |
| 2026-04-26 18:28 | 51.03818 | 30.40952 | 2430 ft | 111 kts | 357° |
| 2026-04-26 18:28 | 51.04576 | 30.41180 | 2430 ft | 111 kts | 357° |
| 2026-04-26 18:29 | 51.05333 | 30.41409 | 2431 ft | 111 kts | 357° |
| 2026-04-26 18:29 | 51.06095 | 30.41631 | 2434 ft | 112 kts | 356° |
| 2026-04-26 18:29 | 51.06867 | 30.41695 | 2434 ft | 109 kts | 348° |
| 2026-04-26 18:29 | 51.07623 | 30.41674 | 2433 ft | 108 kts | 345° |
| 2026-04-26 18:30 | 51.08361 | 30.41520 | 2433 ft | 106 kts | 341° |
| 2026-04-26 18:30 | 51.09086 | 30.41335 | 2432 ft | 105 kts | 341° |
| 2026-04-26 18:30 | 51.09806 | 30.41146 | 2425 ft | 104 kts | 339° |
| 2026-04-26 18:30 | 51.10457 | 30.40677 | 2424 ft | 101 kts | 325° |
| 2026-04-26 18:31 | 51.11060 | 30.40109 | 2424 ft | 100 kts | 324° |
| 2026-04-26 18:31 | 51.11652 | 30.39540 | 2420 ft | 98 kts | 324° |
| 2026-04-26 18:31 | 51.12233 | 30.38984 | 2428 ft | 97 kts | 324° |
| 2026-04-26 18:31 | 51.12807 | 30.38431 | 2429 ft | 96 kts | 324° |
| 2026-04-26 18:32 | 51.13376 | 30.37871 | 2428 ft | 96 kts | 323° |
| 2026-04-26 18:32 | 51.13916 | 30.37262 | 2430 ft | 95 kts | 315° |
| 2026-04-26 18:32 | 51.14401 | 30.36557 | 2430 ft | 94 kts | 314° |
| 2026-04-26 18:32 | 51.14879 | 30.35840 | 2431 ft | 94 kts | 315° |
| 2026-04-26 18:33 | 51.15355 | 30.35123 | 2432 ft | 94 kts | 314° |
| 2026-04-26 18:33 | 51.15826 | 30.34400 | 2431 ft | 94 kts | 315° |
| 2026-04-26 18:33 | 51.16297 | 30.33683 | 2417 ft | 93 kts | 314° |
| 2026-04-26 18:33 | 51.16759 | 30.32969 | 2428 ft | 92 kts | 314° |
| 2026-04-26 18:34 | 51.17226 | 30.32269 | 2428 ft | 92 kts | 315° |
| 2026-04-26 18:34 | 51.17692 | 30.31572 | 2431 ft | 92 kts | 314° |
| 2026-04-26 18:34 | 51.18158 | 30.30871 | 2431 ft | 92 kts | 314° |
| 2026-04-26 18:34 | 51.18622 | 30.30164 | 2432 ft | 92 kts | 314° |
| 2026-04-26 18:35 | 51.19088 | 30.29459 | 2436 ft | 92 kts | 314° |
| 2026-04-26 18:35 | 51.19554 | 30.28755 | 2434 ft | 92 kts | 314° |
| 2026-04-26 18:35 | 51.20020 | 30.28060 | 2435 ft | 92 kts | 315° |
| 2026-04-26 18:35 | 51.20505 | 30.27387 | 2440 ft | 93 kts | 316° |
| 2026-04-26 18:36 | 51.20996 | 30.26732 | 2443 ft | 93 kts | 319° |
| 2026-04-26 18:36 | 51.21521 | 30.26122 | 2441 ft | 93 kts | 320° |
| 2026-04-26 18:36 | 51.22053 | 30.25530 | 2441 ft | 93 kts | 320° |
| 2026-04-26 18:36 | 51.22588 | 30.24939 | 2442 ft | 93 kts | 321° |
| 2026-04-26 18:37 | 51.23122 | 30.24354 | 2441 ft | 93 kts | 321° |
| 2026-04-26 18:37 | 51.23671 | 30.23807 | 2443 ft | 94 kts | 327° |
| 2026-04-26 18:37 | 51.24269 | 30.23375 | 2442 ft | 95 kts | 329° |
| 2026-04-26 18:37 | 51.24882 | 30.22969 | 2442 ft | 96 kts | 329° |
| 2026-04-26 18:38 | 51.25506 | 30.22592 | 2445 ft | 96 kts | 334° |
| 2026-04-26 18:38 | 51.26149 | 30.22267 | 2437 ft | 98 kts | 334° |
| 2026-04-26 18:38 | 51.26796 | 30.21946 | 2432 ft | 97 kts | 334° |
| 2026-04-26 18:38 | 51.27441 | 30.21627 | 2432 ft | 97 kts | 334° |
| 2026-04-26 18:39 | 51.28084 | 30.21301 | 2432 ft | 97 kts | 334° |
| 2026-04-26 18:39 | 51.28725 | 30.20972 | 2433 ft | 96 kts | 335° |
| 2026-04-26 18:39 | 51.29362 | 30.20667 | 2433 ft | 95 kts | 334° |
| 2026-04-26 18:39 | 51.29989 | 30.20305 | 2436 ft | 96 kts | 326° |
| 2026-04-26 18:40 | 51.30564 | 30.19780 | 2432 ft | 95 kts | 324° |
| 2026-04-26 18:40 | 51.31124 | 30.19227 | 2431 ft | 94 kts | 323° |
| 2026-04-26 18:40 | 51.31648 | 30.18607 | 2441 ft | 94 kts | 311° |
| 2026-04-26 18:40 | 51.31904 | 30.17666 | 2440 ft | 96 kts | 281° |
| 2026-04-26 18:41 | 51.31801 | 30.16590 | 2437 ft | 103 kts | 268° |
| 2026-04-26 18:41 | 51.31603 | 30.15470 | 2437 ft | 106 kts | 267° |
| 2026-04-26 18:41 | 51.31395 | 30.14339 | 2439 ft | 106 kts | 267° |
| 2026-04-26 18:41 | 51.31153 | 30.13221 | 2441 ft | 108 kts | 261° |
| 2026-04-26 18:42 | 51.30793 | 30.12156 | 2440 ft | 110 kts | 242° |
| 2026-04-26 18:42 | 51.30171 | 30.11318 | 2433 ft | 121 kts | 235° |
| 2026-04-26 18:42 | 51.29527 | 30.10433 | 2439 ft | 121 kts | 239° |
| 2026-04-26 18:42 | 51.28919 | 30.09514 | 2436 ft | 118 kts | 239° |
| 2026-04-26 18:43 | 51.28316 | 30.08625 | 2448 ft | 118 kts | 240° |
| 2026-04-26 18:43 | 51.27718 | 30.07721 | 2451 ft | 119 kts | 240° |
| 2026-04-26 18:43 | 51.27117 | 30.06809 | 2456 ft | 120 kts | 243° |
| 2026-04-26 18:43 | 51.26603 | 30.05795 | 2452 ft | 115 kts | 246° |
| 2026-04-26 18:44 | 51.26105 | 30.04797 | 2451 ft | 115 kts | 247° |
| 2026-04-26 18:44 | 51.25608 | 30.03795 | 2452 ft | 115 kts | 247° |
| 2026-04-26 18:44 | 51.25114 | 30.02816 | 2453 ft | 115 kts | 246° |
| 2026-04-26 18:44 | 51.24597 | 30.01807 | 2453 ft | 116 kts | 247° |
| 2026-04-26 18:45 | 51.24097 | 30.00818 | 2455 ft | 116 kts | 247° |
| 2026-04-26 18:45 | 51.23595 | 29.99815 | 2453 ft | 116 kts | 247° |
| 2026-04-26 18:45 | 51.23088 | 29.98817 | 2451 ft | 116 kts | 247° |
| 2026-04-26 18:45 | 51.22582 | 29.97816 | 2453 ft | 116 kts | 246° |
| 2026-04-26 18:46 | 51.22073 | 29.96811 | 2463 ft | 116 kts | 247° |
| 2026-04-26 18:46 | 51.21571 | 29.95803 | 2465 ft | 116 kts | 247° |
| 2026-04-26 18:46 | 51.21070 | 29.94796 | 2464 ft | 116 kts | 247° |
| 2026-04-26 18:46 | 51.20564 | 29.93783 | 2464 ft | 117 kts | 247° |
| 2026-04-26 18:47 | 51.20046 | 29.92781 | 2463 ft | 117 kts | 246° |
| 2026-04-26 18:47 | 51.19528 | 29.91790 | 2462 ft | 116 kts | 246° |
| 2026-04-26 18:47 | 51.19013 | 29.90807 | 2463 ft | 115 kts | 246° |
| 2026-04-26 18:47 | 51.18490 | 29.89837 | 2461 ft | 113 kts | 239° |
| 2026-04-26 18:48 | 51.17742 | 29.89326 | 2463 ft | 127 kts | 210° |
| 2026-04-26 18:48 | 51.16844 | 29.89056 | 2463 ft | 133 kts | 199° |
| 2026-04-26 18:48 | 51.15908 | 29.89296 | 2463 ft | 142 kts | 179° |
| 2026-04-26 18:48 | 51.14926 | 29.89657 | 2466 ft | 146 kts | 173° |
| 2026-04-26 18:49 | 51.13947 | 29.90179 | 2465 ft | 151 kts | 170° |
| 2026-04-26 18:49 | 51.12947 | 29.90721 | 2481 ft | 153 kts | 169° |
| 2026-04-26 18:49 | 51.11920 | 29.91188 | 2484 ft | 154 kts | 179° |
| 2026-04-26 18:49 | 51.10871 | 29.91488 | 2481 ft | 153 kts | 180° |
| 2026-04-26 18:50 | 51.09827 | 29.91788 | 2478 ft | 153 kts | 180° |
| 2026-04-26 18:50 | 51.08781 | 29.92066 | 2475 ft | 152 kts | 181° |
| 2026-04-26 18:50 | 51.07737 | 29.92318 | 2470 ft | 152 kts | 182° |
| 2026-04-26 18:50 | 51.06688 | 29.92552 | 2463 ft | 153 kts | 184° |
| 2026-04-26 18:51 | 51.05636 | 29.92817 | 2467 ft | 153 kts | 181° |
| 2026-04-26 18:51 | 51.04580 | 29.93084 | 2469 ft | 153 kts | 182° |
| 2026-04-26 18:51 | 51.03526 | 29.93341 | 2472 ft | 153 kts | 185° |
| 2026-04-26 18:51 | 51.02482 | 29.93457 | 2471 ft | 151 kts | 189° |
| 2026-04-26 18:52 | 51.01433 | 29.93530 | 2479 ft | 151 kts | 190° |
| 2026-04-26 18:52 | 51.00380 | 29.93597 | 2483 ft | 152 kts | 190° |
| 2026-04-26 18:52 | 50.99324 | 29.93661 | 2485 ft | 152 kts | 189° |
| 2026-04-26 18:52 | 50.98263 | 29.93717 | 2485 ft | 153 kts | 190° |
| 2026-04-26 18:53 | 50.97202 | 29.93596 | 2485 ft | 152 kts | 199° |
| 2026-04-26 18:53 | 50.96157 | 29.93416 | 2481 ft | 151 kts | 199° |
| 2026-04-26 18:53 | 50.95115 | 29.93234 | 2478 ft | 150 kts | 199° |
| 2026-04-26 18:53 | 50.94079 | 29.93047 | 2477 ft | 150 kts | 199° |
| 2026-04-26 18:54 | 50.93044 | 29.92859 | 2477 ft | 150 kts | 199° |
| 2026-04-26 18:54 | 50.92010 | 29.92672 | 2477 ft | 150 kts | 199° |
| 2026-04-26 18:54 | 50.90970 | 29.92487 | 2492 ft | 151 kts | 199° |
| 2026-04-26 18:54 | 50.89924 | 29.92301 | 2481 ft | 151 kts | 199° |
| 2026-04-26 18:55 | 50.88882 | 29.92416 | 2462 ft | 153 kts | 171° |
| 2026-04-26 18:55 | 50.87932 | 29.93268 | 2467 ft | 162 kts | 155° |
| 2026-04-26 18:55 | 50.86960 | 29.94206 | 2479 ft | 165 kts | 154° |
| 2026-04-26 18:55 | 50.85981 | 29.95160 | 2490 ft | 166 kts | 153° |
| 2026-04-26 18:56 | 50.84999 | 29.96130 | 2494 ft | 167 kts | 153° |
| 2026-04-26 18:56 | 50.84014 | 29.97091 | 2494 ft | 165 kts | 153° |
| 2026-04-26 18:56 | 50.83085 | 29.98145 | 2488 ft | 165 kts | 144° |
| 2026-04-26 18:56 | 50.82207 | 29.99315 | 2483 ft | 165 kts | 143° |
| 2026-04-26 18:57 | 50.81325 | 30.00485 | 2481 ft | 166 kts | 143° |
| 2026-04-26 18:57 | 50.81024 | 30.00877 | 2482 ft | 165 kts | 143° |
| 2026-04-26 18:57 | 50.79553 | 30.02802 | 2472 ft | 165 kts | 142° |
| 2026-04-26 18:57 | 50.78670 | 30.03966 | 2472 ft | 165 kts | 142° |
| 2026-04-26 18:58 | 50.77806 | 30.05129 | 2472 ft | 165 kts | 141° |
| 2026-04-26 18:58 | 50.76978 | 30.06392 | 2474 ft | 166 kts | 139° |
| 2026-04-26 18:58 | 50.76128 | 30.07617 | 2472 ft | 165 kts | 139° |
| 2026-04-26 18:58 | 50.75279 | 30.08839 | 2481 ft | 165 kts | 139° |
| 2026-04-26 18:59 | 50.74429 | 30.10071 | 2484 ft | 166 kts | 139° |
| 2026-04-26 18:59 | 50.73490 | 30.11173 | 2485 ft | 166 kts | 154° |
| 2026-04-26 18:59 | 50.72500 | 30.12040 | 2484 ft | 165 kts | 156° |
| 2026-04-26 18:59 | 50.71449 | 30.12744 | 2483 ft | 163 kts | 171° |
| 2026-04-26 19:00 | 50.70365 | 30.13234 | 2479 ft | 161 kts | 172° |
| 2026-04-26 19:00 | 50.69284 | 30.13718 | 2478 ft | 161 kts | 174° |
| 2026-04-26 19:00 | 50.68209 | 30.14172 | 2478 ft | 160 kts | 173° |
| 2026-04-26 19:00 | 50.67137 | 30.14641 | 2476 ft | 160 kts | 174° |
| 2026-04-26 19:01 | 50.66074 | 30.15111 | 2475 ft | 158 kts | 174° |
| 2026-04-26 19:01 | 50.65013 | 30.15575 | 2478 ft | 158 kts | 175° |
| 2026-04-26 19:01 | 50.63929 | 30.15814 | 2478 ft | 156 kts | 183° |
| 2026-04-26 19:01 | 50.62854 | 30.16003 | 2486 ft | 155 kts | 184° |
| 2026-04-26 19:02 | 50.61780 | 30.16191 | 2489 ft | 155 kts | 184° |
| 2026-04-26 19:02 | 50.60711 | 30.16405 | 2475 ft | 155 kts | 176° |
| 2026-04-26 19:02 | 50.59704 | 30.17050 | 2485 ft | 159 kts | 162° |
| 2026-04-26 19:02 | 50.59365 | 30.17300 | 2481 ft | 160 kts | 161° |
| 2026-04-26 19:03 | 50.57686 | 30.18544 | 2503 ft | 161 kts | 161° |
| 2026-04-26 19:03 | 50.56670 | 30.19298 | 2487 ft | 162 kts | 161° |
| 2026-04-26 19:03 | 50.55648 | 30.20060 | 2483 ft | 163 kts | 161° |
| 2026-04-26 19:03 | 50.54666 | 30.20944 | 2481 ft | 163 kts | 151° |
| 2026-04-26 19:04 | 50.53851 | 30.22157 | 2465 ft | 163 kts | 121° |
| 2026-04-26 19:04 | 50.53433 | 30.23791 | 2475 ft | 161 kts | 106° |
| 2026-04-26 19:04 | 50.53028 | 30.25438 | 2479 ft | 162 kts | 108° |
| 2026-04-26 19:04 | 50.52501 | 30.26990 | 2470 ft | 160 kts | 116° |
| 2026-04-26 19:05 | 50.51606 | 30.29516 | 2475 ft | 158 kts | 119° |
| 2026-04-26 19:05 | 50.50885 | 30.30794 | 2476 ft | 156 kts | 136° |
| 2026-04-26 19:05 | 50.50079 | 30.31925 | 2475 ft | 155 kts | 150° |
| 2026-04-26 19:06 | 50.49152 | 30.32764 | 2473 ft | 153 kts | 157° |
| 2026-04-26 19:06 | 50.48198 | 30.33504 | 2474 ft | 153 kts | 161° |
| 2026-04-26 19:06 | 50.47247 | 30.34225 | 2482 ft | 152 kts | 160° |
| 2026-04-26 19:06 | 50.46296 | 30.34940 | 2483 ft | 152 kts | 161° |
| 2026-04-26 19:07 | 50.45346 | 30.35666 | 2482 ft | 151 kts | 157° |
| 2026-04-26 19:07 | 50.44632 | 30.36844 | 2485 ft | 151 kts | 120° |
| 2026-04-26 19:07 | 50.44190 | 30.38340 | 2480 ft | 152 kts | 110° |
| 2026-04-26 19:07 | 50.43761 | 30.39850 | 2471 ft | 150 kts | 109° |
| 2026-04-26 19:08 | 50.43342 | 30.41363 | 2262 ft | 154 kts | 109° |
| 2026-04-26 19:08 | 50.42924 | 30.42890 | 2165 ft | 149 kts | 107° |
| 2026-04-26 19:08 | 50.42423 | 30.44356 | 1837 ft | 156 kts | 118° |
| 2026-04-26 19:08 | 50.42006 | 30.45835 | 1580 ft | 140 kts | 100° |
| 2026-04-26 19:09 | 50.41811 | 30.47225 | 1480 ft | 128 kts | 96° |
| 2026-04-26 19:09 | 50.41636 | 30.48614 | 1555 ft | 131 kts | 95° |
| 2026-04-26 19:09 | 50.41129 | 30.49701 | 1509 ft | 115 kts | 156° |
| 2026-04-26 19:09 | 50.40461 | 30.49639 | 1323 ft | 93 kts | 246° |
| 2026-04-26 19:10 | 50.40283 | 30.48715 | 944 ft | 90 kts | 277° |
| 2026-04-26 19:10 | 50.40296 | 30.47849 | 794 ft | 74 kts | 273° |
| 2026-04-26 19:10 | 50.40262 | 30.47029 | 705 ft | 75 kts | 268° |
| 2026-04-26 19:10 | 50.40224 | 30.46239 | 600 ft | 68 kts | 271° |
| 2026-04-26 19:11 | 50.40204 | 30.45628 | 577 ft | 46 kts | 268° |
| 2026-04-26 19:11 | 50.40183 | 30.45183 | 572 ft | 36 kts | 269° |
| 2026-04-26 19:11 | 50.40165 | 30.44832 | 571 ft | 32 kts | 264° |
| 2026-04-26 19:11 | 50.40152 | 30.44499 | 568 ft | 29 kts | 264° |
| 2026-04-26 19:12 | 50.40137 | 30.44198 | 567 ft | 26 kts | 266° |
| 2026-04-26 19:12 | 50.40125 | 30.43938 | 561 ft | 24 kts | 266° |
| 2026-04-26 19:12 | 50.40114 | 30.43715 | 558 ft | 16 kts | 262° |
| 2026-04-26 19:12 | 50.40109 | 30.43577 | 556 ft | 11 kts | 274° |
| 2026-04-26 19:13 | 50.40157 | 30.43521 | 554 ft | 9 kts | 17° |
| 2026-04-26 19:13 | 50.40228 | 30.43564 | 554 ft | 17 kts | 23° |
| 2026-04-26 19:13 | 50.40337 | 30.43641 | 555 ft | 15 kts | 27° |
| 2026-04-26 19:13 | 50.40422 | 30.43740 | 556 ft | 17 kts | 28° |
| 2026-04-26 19:14 | 50.40490 | 30.43791 | 556 ft | 4 kts | 27° |
| 2026-04-26 19:14 | 50.40539 | 30.43825 | 557 ft | 9 kts | 22° |
| 2026-04-26 19:14 | 50.40568 | 30.43891 | 557 ft | 7 kts | 73° |
| 2026-04-26 19:14 | 50.40570 | 30.43902 | 557 ft | 0 kts | 75° |
| 2026-04-26 19:15 | 50.40571 | 30.43906 | 557 ft | 0 kts | 76° |
| 2026-04-26 19:15 | 50.40571 | 30.43908 | 557 ft | 0 kts | 77° |